Time;durP1;ratioP1;P1;durP2;ratioP2;P2;SDS_P1;SDS_P2;PMS_P1;PMS_P2;Temp;Humidity;BMP_temperature;BMP_pressure;BME280_temperature;BME280_humidity;BME280_pressure;Samples;Min_cycle;Max_cycle;Signal;HPM_P1;HPM_P2
2023/06/01 00:00:55;;;;;;;16.73;5.97;;;11.60;93.00;;;;;;5050325;28;20079;-70
2023/06/01 00:03:21;;;;;;;16.02;5.78;;;11.70;93.00;;;;;;5045114;28;20029;-70
2023/06/01 00:05:47;;;;;;;13.48;5.68;;;11.70;92.70;;;;;;5044576;28;20041;-70
2023/06/01 00:08:12;;;;;;;15.85;5.38;;;11.70;92.70;;;;;;5047102;28;20031;-70
2023/06/01 00:10:38;;;;;;;17.02;5.80;;;11.70;92.70;;;;;;5041707;28;21643;-70
2023/06/01 00:13:03;;;;;;;13.82;5.28;;;11.70;92.80;;;;;;5046690;28;20473;-70
2023/06/01 00:15:29;;;;;;;16.52;5.38;;;11.70;92.80;;;;;;5044177;28;20458;-70
2023/06/01 00:17:55;;;;;;;15.07;5.40;;;11.60;92.90;;;;;;5039345;28;20075;-70
2023/06/01 00:20:23;;;;;;;12.95;5.78;;;11.60;93.30;;;;;;5047330;28;20026;-70
2023/06/01 00:22:49;;;;;;;18.75;5.57;;;11.50;93.50;;;;;;5054874;28;20021;-70
2023/06/01 00:25:15;;;;;;;14.65;5.38;;;11.50;93.50;;;;;;5056601;28;20114;-70
2023/06/01 00:27:40;;;;;;;14.35;5.13;;;11.50;93.70;;;;;;5048777;28;20087;-70
2023/06/01 00:30:06;;;;;;;18.65;5.47;;;11.30;93.80;;;;;;5047068;28;20037;-70
2023/06/01 00:32:32;;;;;;;17.63;5.55;;;11.40;94.10;;;;;;5061158;28;20112;-70
2023/06/01 00:34:57;;;;;;;15.52;5.50;;;11.40;93.60;;;;;;5048052;28;20093;-70
2023/06/01 00:37:23;;;;;;;16.98;6.15;;;11.50;93.30;;;;;;5051592;28;20108;-70
2023/06/01 00:39:48;;;;;;;16.70;6.55;;;11.40;93.70;;;;;;5053822;28;20432;-72
2023/06/01 00:42:14;;;;;;;13.93;6.22;;;11.40;93.80;;;;;;5048012;28;20071;-70
2023/06/01 00:44:39;;;;;;;14.27;6.50;;;11.40;93.80;;;;;;5049559;28;20076;-70
2023/06/01 00:47:05;;;;;;;16.50;6.90;;;11.30;94.00;;;;;;5047701;28;20029;-70
2023/06/01 00:49:31;;;;;;;14.60;6.18;;;11.50;94.00;;;;;;5049428;28;20443;-70
2023/06/01 00:51:57;;;;;;;13.07;6.10;;;11.40;93.90;;;;;;5049809;28;20108;-70
2023/06/01 00:54:22;;;;;;;18.85;6.65;;;11.40;93.80;;;;;;5051292;28;20056;-70
2023/06/01 00:56:48;;;;;;;14.05;6.30;;;11.40;93.50;;;;;;5049710;28;20505;-70
2023/06/01 00:59:13;;;;;;;17.17;6.82;;;11.30;93.30;;;;;;5052068;28;20039;-70
2023/06/01 01:01:42;;;;;;;15.30;6.75;;;11.40;93.20;;;;;;5045803;28;20469;-70
2023/06/01 01:04:09;;;;;;;15.95;5.80;;;11.40;92.90;;;;;;5045031;28;20381;-70
2023/06/01 01:06:49;;;;;;;13.00;6.00;;;11.50;93.10;;;;;;5046298;28;20369;-72
2023/06/01 01:09:19;;;;;;;16.10;6.03;;;11.50;92.60;;;;;;5047516;28;20021;-70
2023/06/01 01:11:57;;;;;;;15.50;6.17;;;11.40;92.50;;;;;;5045318;28;20079;-70
2023/06/01 01:14:26;;;;;;;13.60;4.95;;;11.40;92.30;;;;;;5044539;28;20382;-70
2023/06/01 01:17:04;;;;;;;11.85;4.75;;;11.50;92.10;;;;;;5045838;28;20031;-70
2023/06/01 01:19:57;;;;;;;18.17;5.43;;;11.40;91.90;;;;;;5052187;28;20036;-70
2023/06/01 01:22:38;;;;;;;15.80;5.05;;;11.40;91.70;;;;;;5051570;28;20025;-70
2023/06/01 01:25:20;;;;;;;10.25;4.68;;;11.40;91.50;;;;;;5047746;28;20032;-70
2023/06/01 01:28:06;;;;;;;11.32;4.30;;;11.40;91.40;;;;;;5036857;28;20045;-70
2023/06/01 01:30:40;;;;;;;16.13;4.60;;;11.50;91.20;;;;;;5051246;28;20035;-70
2023/06/01 01:33:06;;;;;;;14.57;4.78;;;11.50;90.80;;;;;;5048812;28;20108;-70
2023/06/01 01:35:33;;;;;;;12.60;4.70;;;11.50;90.50;;;;;;5048785;28;20039;-70
2023/06/01 01:37:58;;;;;;;11.88;5.22;;;11.50;90.30;;;;;;5045314;28;20024;-70
2023/06/01 01:40:23;;;;;;;13.20;4.53;;;11.50;90.20;;;;;;5050403;28;20029;-70
2023/06/01 01:42:50;;;;;;;14.95;4.50;;;11.40;90.30;;;;;;5048512;28;20453;-70
2023/06/01 01:45:17;;;;;;;12.50;4.93;;;11.40;90.20;;;;;;5050148;28;20098;-70
2023/06/01 01:48:04;;;;;;;12.07;4.50;;;11.50;90.20;;;;;;5048466;28;20032;-70
2023/06/01 01:50:41;;;;;;;13.15;3.97;;;11.40;90.20;;;;;;5046240;28;20052;-70
2023/06/01 01:53:09;;;;;;;12.32;4.88;;;11.40;90.80;;;;;;5059352;28;20035;-70
2023/06/01 01:55:36;;;;;;;11.77;4.50;;;11.40;90.60;;;;;;5049312;28;20118;-70
2023/06/01 01:58:03;;;;;;;19.40;4.68;;;11.30;90.80;;;;;;5049806;28;20025;-70
2023/06/01 02:00:29;;;;;;;12.68;4.47;;;11.30;90.90;;;;;;5047436;28;20032;-70
2023/06/01 02:02:55;;;;;;;13.02;4.70;;;11.30;90.90;;;;;;5046297;28;20048;-70
2023/06/01 02:05:20;;;;;;;13.25;4.70;;;11.40;90.60;;;;;;5048766;28;20124;-70
2023/06/01 02:07:46;;;;;;;15.00;4.32;;;11.30;90.50;;;;;;5044640;28;20044;-70
2023/06/01 02:10:11;;;;;;;20.75;5.00;;;11.30;90.00;;;;;;5048021;28;20087;-70
2023/06/01 02:12:37;;;;;;;16.83;5.43;;;11.30;89.70;;;;;;5045473;28;21890;-70
2023/06/01 02:15:03;;;;;;;14.38;5.15;;;11.30;89.30;;;;;;5044034;28;20021;-70
2023/06/01 02:17:28;;;;;;;14.85;5.00;;;11.30;89.10;;;;;;5047061;28;20028;-70
2023/06/01 02:19:54;;;;;;;14.68;5.03;;;11.30;89.10;;;;;;5046604;28;20507;-70
2023/06/01 02:22:20;;;;;;;16.92;4.82;;;11.30;89.10;;;;;;5055402;28;20082;-70
2023/06/01 02:24:45;;;;;;;16.08;4.57;;;11.30;88.90;;;;;;5043894;28;20056;-70
2023/06/01 02:27:11;;;;;;;12.60;4.90;;;11.30;89.00;;;;;;5053161;28;20059;-70
2023/06/01 02:29:36;;;;;;;14.00;5.43;;;11.40;89.00;;;;;;5055013;28;20029;-70
2023/06/01 02:32:02;;;;;;;14.13;4.80;;;11.40;89.00;;;;;;5043620;28;20530;-70
2023/06/01 02:34:27;;;;;;;12.32;4.57;;;11.40;88.90;;;;;;5047471;28;20045;-70
2023/06/01 02:36:55;;;;;;;14.80;4.93;;;11.30;88.80;;;;;;5058021;28;20365;-70
2023/06/01 02:39:21;;;;;;;11.20;4.80;;;11.30;89.10;;;;;;5046354;28;20033;-70
2023/06/01 02:41:46;;;;;;;15.65;5.38;;;11.30;89.20;;;;;;5048452;28;20017;-70
2023/06/01 02:44:12;;;;;;;15.30;4.72;;;11.30;89.20;;;;;;5049222;28;20365;-70
2023/06/01 02:46:37;;;;;;;16.45;5.05;;;11.30;89.10;;;;;;5040726;28;20120;-70
2023/06/01 02:49:03;;;;;;;15.65;4.65;;;11.30;88.90;;;;;;5048741;28;20504;-70
2023/06/01 02:51:30;;;;;;;15.52;4.60;;;11.20;88.90;;;;;;5047965;28;20024;-70
2023/06/01 02:53:56;;;;;;;13.00;4.65;;;11.20;88.90;;;;;;5047333;28;20124;-70
2023/06/01 02:56:21;;;;;;;12.68;4.72;;;11.20;88.80;;;;;;5059518;28;20175;-70
2023/06/01 02:58:47;;;;;;;12.90;4.90;;;11.30;88.70;;;;;;5048396;28;20031;-70
2023/06/01 03:01:12;;;;;;;12.95;4.60;;;11.30;88.90;;;;;;5040627;28;20098;-70
2023/06/01 03:03:38;;;;;;;17.40;5.20;;;11.30;88.90;;;;;;5042153;28;20473;-70
2023/06/01 03:06:05;;;;;;;14.35;4.28;;;11.20;89.10;;;;;;5037385;28;20033;-70
2023/06/01 03:08:31;;;;;;;15.75;4.70;;;11.20;89.10;;;;;;5044370;28;20025;-70
2023/06/01 03:10:56;;;;;;;15.77;4.72;;;11.20;89.20;;;;;;5046095;28;20458;-70
2023/06/01 03:13:22;;;;;;;18.77;5.22;;;11.30;89.30;;;;;;5055354;28;20094;-70
2023/06/01 03:15:48;;;;;;;18.55;5.28;;;11.30;89.10;;;;;;5031869;28;20042;-70
2023/06/01 03:18:14;;;;;;;15.85;5.25;;;11.30;89.30;;;;;;5048763;28;20037;-70
2023/06/01 03:20:39;;;;;;;15.63;5.03;;;11.30;89.30;;;;;;5047008;28;20028;-70
2023/06/01 03:23:05;;;;;;;16.15;4.55;;;11.30;89.50;;;;;;5046277;28;20421;-70
2023/06/01 03:25:30;;;;;;;15.98;4.38;;;11.30;89.10;;;;;;5046403;28;20111;-70
2023/06/01 03:27:56;;;;;;;13.40;4.50;;;11.30;88.60;;;;;;5046375;28;20140;-70
2023/06/01 03:30:22;;;;;;;14.10;4.65;;;11.20;88.40;;;;;;5044508;28;20041;-70
2023/06/01 03:32:47;;;;;;;13.65;4.43;;;11.20;88.70;;;;;;5038846;28;20370;-70
2023/06/01 03:35:13;;;;;;;9.77;4.30;;;11.20;88.60;;;;;;5047229;28;20024;-70
2023/06/01 03:37:41;;;;;;;15.07;5.20;;;11.20;88.60;;;;;;5046341;28;20025;-70
2023/06/01 03:40:11;;;;;;;13.10;4.13;;;11.30;88.60;;;;;;5046567;28;20361;-70
2023/06/01 03:42:41;;;;;;;13.90;4.53;;;11.30;88.60;;;;;;5048213;28;20025;-70
2023/06/01 03:45:08;;;;;;;14.40;4.68;;;11.30;88.70;;;;;;5044712;28;20029;-70
2023/06/01 03:47:34;;;;;;;12.25;4.25;;;11.20;88.90;;;;;;5046567;28;20021;-70
2023/06/01 03:50:03;;;;;;;15.55;4.45;;;11.20;88.80;;;;;;5049290;28;20107;-70
2023/06/01 03:52:29;;;;;;;8.85;4.40;;;11.20;88.60;;;;;;5049358;28;20025;-70
2023/06/01 03:54:56;;;;;;;14.85;4.47;;;11.20;88.80;;;;;;5044426;28;20043;-70
2023/06/01 03:57:22;;;;;;;17.85;4.90;;;11.20;88.70;;;;;;5047304;28;20246;-70
2023/06/01 03:59:47;;;;;;;15.38;4.47;;;11.20;88.80;;;;;;5050713;28;20442;-70
2023/06/01 04:02:13;;;;;;;15.90;4.63;;;11.30;88.70;;;;;;5042031;28;20065;-70
2023/06/01 04:04:45;;;;;;;13.38;5.10;;;11.20;88.30;;;;;;5051781;28;20426;-70
2023/06/01 04:07:12;;;;;;;17.52;6.00;;;11.20;88.50;;;;;;5048732;28;20086;-70
2023/06/01 04:09:38;;;;;;;18.63;5.28;;;11.20;88.80;;;;;;5043221;28;20025;-70
2023/06/01 04:12:05;;;;;;;11.48;4.70;;;11.30;88.80;;;;;;5049637;28;20082;-70
2023/06/01 04:14:30;;;;;;;16.92;5.03;;;11.30;88.60;;;;;;5049239;28;20079;-70
2023/06/01 04:16:56;;;;;;;15.73;5.25;;;11.20;88.60;;;;;;5047911;28;20041;-70
2023/06/01 04:19:21;;;;;;;13.10;4.97;;;11.30;88.20;;;;;;5053041;28;20035;-70
2023/06/01 04:21:47;;;;;;;17.80;5.07;;;11.30;88.10;;;;;;5052477;28;20040;-70
2023/06/01 04:24:12;;;;;;;12.27;4.65;;;11.30;88.00;;;;;;5052987;28;20449;-70
2023/06/01 04:26:38;;;;;;;16.20;4.97;;;11.30;87.90;;;;;;5038981;28;20041;-70
2023/06/01 04:29:03;;;;;;;14.18;4.80;;;11.30;88.00;;;;;;5049246;28;20083;-68
2023/06/01 04:31:32;;;;;;;14.23;4.30;;;11.20;87.80;;;;;;5049386;28;20109;-68
2023/06/01 04:34:01;;;;;;;15.55;4.13;;;11.20;88.00;;;;;;5054892;28;20024;-68
2023/06/01 04:36:29;;;;;;;11.43;4.30;;;11.30;87.70;;;;;;5060256;28;20090;-68
2023/06/01 04:38:54;;;;;;;17.02;4.55;;;11.40;87.80;;;;;;5051267;28;20502;-68
2023/06/01 04:41:28;;;;;;;17.27;4.78;;;11.40;87.60;;;;;;5050436;28;20104;-68
2023/06/01 04:43:54;;;;;;;13.70;4.28;;;11.30;87.60;;;;;;5049868;28;20052;-68
2023/06/01 04:46:25;;;;;;;17.00;4.50;;;11.30;87.70;;;;;;5036720;28;20033;-68
2023/06/01 04:48:59;;;;;;;10.85;4.65;;;11.30;87.80;;;;;;5044777;28;20392;-68
2023/06/01 04:51:26;;;;;;;17.48;4.32;;;11.30;88.10;;;;;;5041794;28;20087;-68
2023/06/01 04:53:53;;;;;;;13.93;5.10;;;11.30;88.10;;;;;;5044489;28;20369;-69
2023/06/01 04:56:24;;;;;;;10.95;4.38;;;11.30;88.20;;;;;;5050527;28;20024;-68
2023/06/01 04:58:50;;;;;;;15.35;4.10;;;11.40;88.00;;;;;;5048789;28;20127;-69
2023/06/01 05:01:15;;;;;;;15.07;5.13;;;11.30;87.90;;;;;;5045480;28;20369;-69
2023/06/01 05:03:45;;;;;;;16.90;4.80;;;11.30;88.10;;;;;;5047169;28;20111;-69
2023/06/01 05:06:13;;;;;;;13.65;4.97;;;11.30;88.00;;;;;;5044137;28;20037;-69
2023/06/01 05:08:39;;;;;;;15.55;4.53;;;11.40;87.90;;;;;;5044937;28;20401;-68
2023/06/01 05:11:06;;;;;;;12.07;3.80;;;11.50;87.50;;;;;;5043281;28;20404;-68
2023/06/01 05:13:33;;;;;;;18.60;5.00;;;11.50;87.50;;;;;;5047249;28;20029;-67
2023/06/01 05:15:59;;;;;;;15.52;4.43;;;11.50;87.50;;;;;;5047745;28;20021;-68
2023/06/01 05:18:24;;;;;;;15.82;4.82;;;11.50;87.60;;;;;;5047630;28;20022;-68
2023/06/01 05:20:50;;;;;;;12.95;4.47;;;11.60;87.50;;;;;;5041770;28;20025;-68
2023/06/01 05:23:15;;;;;;;14.52;4.78;;;11.40;87.80;;;;;;5053138;28;20024;-68
2023/06/01 05:25:41;;;;;;;14.38;4.63;;;11.40;87.70;;;;;;5049524;28;20040;-68
2023/06/01 05:28:06;;;;;;;11.75;4.30;;;11.50;87.50;;;;;;5046108;28;20056;-67
2023/06/01 05:30:32;;;;;;;14.05;4.50;;;11.50;87.00;;;;;;5048622;28;20033;-72
2023/06/01 05:32:57;;;;;;;14.88;4.85;;;11.50;87.00;;;;;;5046487;28;20501;-68
2023/06/01 05:35:23;;;;;;;14.10;4.80;;;11.60;86.90;;;;;;5047278;28;20029;-69
2023/06/01 05:37:48;;;;;;;13.15;4.22;;;11.60;87.10;;;;;;5055186;28;20470;-69
2023/06/01 05:40:14;;;;;;;10.23;3.92;;;11.50;87.00;;;;;;5053325;28;20162;-69
2023/06/01 05:42:39;;;;;;;18.73;4.97;;;11.50;87.20;;;;;;5049270;28;20047;-69
2023/06/01 05:45:05;;;;;;;14.30;4.70;;;11.60;87.10;;;;;;5055279;28;21215;-69
2023/06/01 05:47:31;;;;;;;19.67;4.60;;;11.60;86.80;;;;;;5051722;28;20021;-69
2023/06/01 05:49:56;;;;;;;12.23;4.40;;;11.70;86.40;;;;;;5045355;28;20033;-68
2023/06/01 05:52:23;;;;;;;11.77;4.35;;;11.60;86.20;;;;;;5052196;28;20111;-68
2023/06/01 05:54:50;;;;;;;12.73;4.47;;;11.60;86.10;;;;;;5052180;28;20032;-68
2023/06/01 05:57:15;;;;;;;14.32;4.53;;;11.70;86.30;;;;;;5050534;28;20031;-68
2023/06/01 05:59:42;;;;;;;13.40;4.50;;;11.80;86.30;;;;;;5050787;28;20029;-68
2023/06/01 06:02:07;;;;;;;15.18;5.13;;;11.80;86.00;;;;;;5041947;28;20040;-68
2023/06/01 06:04:33;;;;;;;12.48;4.45;;;11.90;86.00;;;;;;5045979;28;20032;-67
2023/06/01 06:06:58;;;;;;;13.35;4.45;;;11.90;85.80;;;;;;5043888;28;20119;-68
2023/06/01 06:09:24;;;;;;;16.20;4.50;;;11.90;85.50;;;;;;5042313;28;20053;-68
2023/06/01 06:11:49;;;;;;;15.20;4.50;;;11.90;84.70;;;;;;5044566;28;20474;-67
2023/06/01 06:14:15;;;;;;;17.88;5.13;;;11.80;85.20;;;;;;5043690;28;20042;-68
2023/06/01 06:16:42;;;;;;;16.50;5.00;;;12.00;85.30;;;;;;5054592;28;20043;-68
2023/06/01 06:19:07;;;;;;;10.05;3.63;;;12.00;85.10;;;;;;5061604;28;20024;-68
2023/06/01 06:21:33;;;;;;;16.13;3.75;;;12.00;84.80;;;;;;5052074;28;20035;-67
2023/06/01 06:23:59;;;;;;;10.95;4.03;;;12.00;85.60;;;;;;5057761;28;20025;-68
2023/06/01 06:26:26;;;;;;;9.85;4.28;;;12.00;85.20;;;;;;5039007;28;20060;-68
2023/06/01 06:28:52;;;;;;;11.85;4.53;;;12.10;85.10;;;;;;5045999;28;20103;-67
2023/06/01 06:31:17;;;;;;;9.98;4.38;;;12.20;85.20;;;;;;5048882;28;20104;-68
2023/06/01 06:33:43;;;;;;;12.60;3.53;;;12.10;85.00;;;;;;5052072;28;20052;-68
2023/06/01 06:36:08;;;;;;;14.80;3.80;;;12.10;84.90;;;;;;5056017;28;20033;-68
2023/06/01 06:38:34;;;;;;;19.40;4.25;;;12.00;85.20;;;;;;5051225;28;20028;-68
2023/06/01 06:40:59;;;;;;;10.50;4.20;;;12.00;85.50;;;;;;5051479;28;20057;-68
2023/06/01 06:43:25;;;;;;;12.10;4.00;;;11.90;85.60;;;;;;5051814;28;20033;-68
2023/06/01 06:45:51;;;;;;;13.73;4.22;;;12.10;84.90;;;;;;5047874;28;20457;-68
2023/06/01 06:48:16;;;;;;;14.98;4.30;;;12.10;85.20;;;;;;5059516;28;20123;-68
2023/06/01 06:50:44;;;;;;;12.75;4.38;;;12.10;85.00;;;;;;5051040;28;20036;-68
2023/06/01 06:53:09;;;;;;;13.35;4.03;;;12.20;85.00;;;;;;5050655;28;20017;-68
2023/06/01 06:55:35;;;;;;;10.60;3.78;;;12.20;85.10;;;;;;5042665;28;20044;-68
2023/06/01 06:58:00;;;;;;;13.75;4.25;;;12.10;84.90;;;;;;5048473;28;20025;-68
2023/06/01 07:00:26;;;;;;;11.93;4.28;;;12.20;84.80;;;;;;5063069;28;20028;-68
2023/06/01 07:02:52;;;;;;;9.93;4.22;;;12.10;84.70;;;;;;5050185;28;20020;-68
2023/06/01 07:05:18;;;;;;;12.38;3.90;;;12.30;85.10;;;;;;5051461;28;20029;-68
2023/06/01 07:07:43;;;;;;;10.55;3.70;;;12.30;84.40;;;;;;5050740;28;20033;-68
2023/06/01 07:10:09;;;;;;;12.52;4.07;;;12.30;84.90;;;;;;5058684;28;20135;-68
2023/06/01 07:12:35;;;;;;;15.18;4.28;;;12.30;84.60;;;;;;5050527;28;20025;-68
2023/06/01 07:15:01;;;;;;;11.30;3.95;;;12.20;84.50;;;;;;5061754;28;20526;-68
2023/06/01 07:17:27;;;;;;;13.38;3.88;;;12.30;84.00;;;;;;5047970;28;20017;-68
2023/06/01 07:19:52;;;;;;;8.88;3.78;;;12.50;84.30;;;;;;5046484;28;20082;-68
2023/06/01 07:22:18;;;;;;;12.35;3.60;;;12.40;84.20;;;;;;5049711;28;20037;-68
2023/06/01 07:24:44;;;;;;;11.43;3.97;;;12.30;84.70;;;;;;5050720;28;20059;-68
2023/06/01 07:27:11;;;;;;;10.95;4.18;;;12.50;84.60;;;;;;5046649;28;20441;-68
2023/06/01 07:29:36;;;;;;;13.82;4.30;;;12.40;84.30;;;;;;5052167;28;20031;-68
2023/06/01 07:32:02;;;;;;;11.80;3.67;;;12.40;84.30;;;;;;5053084;28;20036;-68
2023/06/01 07:34:27;;;;;;;10.35;3.55;;;12.40;84.70;;;;;;5054455;28;20032;-68
2023/06/01 07:36:54;;;;;;;12.88;3.45;;;12.40;84.50;;;;;;5056143;28;20184;-68
2023/06/01 07:39:20;;;;;;;9.23;3.30;;;12.50;84.40;;;;;;5047509;28;20055;-68
2023/06/01 07:41:45;;;;;;;8.23;3.00;;;12.60;84.20;;;;;;5054226;28;20052;-69
2023/06/01 07:44:12;;;;;;;10.70;3.35;;;12.60;84.00;;;;;;5053025;28;20036;-67
2023/06/01 07:46:37;;;;;;;13.68;3.20;;;12.50;83.40;;;;;;5054282;28;20029;-68
2023/06/01 07:49:03;;;;;;;10.00;2.83;;;12.50;84.00;;;;;;5053570;28;20343;-68
2023/06/01 07:51:31;;;;;;;11.55;3.45;;;12.50;82.80;;;;;;5050688;28;20088;-68
2023/06/01 07:53:57;;;;;;;13.90;3.25;;;12.70;83.20;;;;;;5054105;28;20021;-67
2023/06/01 07:56:26;;;;;;;9.75;3.45;;;12.70;82.60;;;;;;5054638;28;20373;-68
2023/06/01 07:58:52;;;;;;;9.70;3.15;;;12.80;82.20;;;;;;5056256;28;20373;-67
2023/06/01 08:01:18;;;;;;;13.98;3.30;;;12.90;82.20;;;;;;5051970;28;20025;-68
2023/06/01 08:03:43;;;;;;;10.90;3.30;;;12.90;81.70;;;;;;5054887;28;20036;-68
2023/06/01 08:06:09;;;;;;;12.25;4.03;;;13.00;81.10;;;;;;5049663;28;20029;-68
2023/06/01 08:08:35;;;;;;;11.85;3.17;;;13.00;80.90;;;;;;5052794;28;20029;-68
2023/06/01 08:11:00;;;;;;;10.40;3.63;;;13.10;80.80;;;;;;5055278;28;20029;-68
2023/06/01 08:13:26;;;;;;;16.95;3.72;;;13.10;80.30;;;;;;5054960;28;20434;-68
2023/06/01 08:15:52;;;;;;;13.35;3.85;;;13.20;80.60;;;;;;5047756;28;20025;-68
2023/06/01 08:18:19;;;;;;;12.48;3.28;;;13.40;79.60;;;;;;5054525;28;20033;-68
2023/06/01 08:20:45;;;;;;;18.77;4.05;;;13.20;80.10;;;;;;5054415;28;20025;-68
2023/06/01 08:23:10;;;;;;;12.40;3.40;;;13.50;79.90;;;;;;5058893;28;20040;-68
2023/06/01 08:25:36;;;;;;;10.15;2.78;;;13.60;78.60;;;;;;5058030;28;20102;-68
2023/06/01 08:28:02;;;;;;;13.45;2.95;;;13.60;78.10;;;;;;5047891;28;20045;-68
2023/06/01 08:30:28;;;;;;;11.15;3.08;;;13.50;78.20;;;;;;5050866;28;20028;-68
2023/06/01 08:32:53;;;;;;;11.63;3.60;;;13.70;77.60;;;;;;5052023;28;20369;-68
2023/06/01 08:35:19;;;;;;;10.50;2.70;;;13.80;78.40;;;;;;5064974;28;20025;-68
2023/06/01 08:37:47;;;;;;;12.23;3.33;;;14.00;77.60;;;;;;5046743;28;20362;-68
2023/06/01 08:40:12;;;;;;;12.60;3.05;;;13.90;77.70;;;;;;5054567;28;20044;-68
2023/06/01 08:42:45;;;;;;;8.10;2.97;;;13.80;77.60;;;;;;5052767;28;20025;-68
2023/06/01 08:45:11;;;;;;;9.30;3.10;;;13.80;77.10;;;;;;5050618;28;20029;-68
2023/06/01 08:47:38;;;;;;;6.53;2.65;;;13.70;77.90;;;;;;5052914;28;20025;-68
2023/06/01 08:50:04;;;;;;;10.93;3.33;;;13.60;77.50;;;;;;5056155;28;20107;-68
2023/06/01 08:52:33;;;;;;;9.88;2.95;;;13.60;77.60;;;;;;5056948;28;20461;-68
2023/06/01 08:55:00;;;;;;;9.85;2.90;;;13.80;76.80;;;;;;5047886;28;20025;-68
2023/06/01 08:57:26;;;;;;;12.95;2.97;;;14.00;76.90;;;;;;5054844;28;20021;-68
2023/06/01 08:59:52;;;;;;;12.05;3.47;;;14.10;76.10;;;;;;5062275;28;20108;-68
2023/06/01 09:02:17;;;;;;;11.65;3.25;;;13.90;76.20;;;;;;5046498;28;20104;-68
2023/06/01 09:04:44;;;;;;;17.15;3.53;;;13.70;77.50;;;;;;5045379;28;20041;-68
2023/06/01 09:07:14;;;;;;;9.52;2.90;;;14.00;77.10;;;;;;5051365;28;20023;-68
2023/06/01 09:09:39;;;;;;;10.70;3.00;;;14.10;76.80;;;;;;5050943;28;20111;-68
2023/06/01 09:12:28;;;;;;;8.63;3.33;;;14.10;76.60;;;;;;5052727;28;20017;-68
2023/06/01 09:15:16;;;;;;;11.50;3.08;;;13.70;77.00;;;;;;5050565;28;20037;-68
2023/06/01 09:17:42;;;;;;;13.13;2.83;;;14.00;77.10;;;;;;5046835;28;20078;-68
2023/06/01 09:20:32;;;;;;;11.73;2.72;;;14.10;76.90;;;;;;5050535;28;20048;-68
2023/06/01 09:22:58;;;;;;;11.50;3.08;;;14.00;76.70;;;;;;5051570;28;20049;-68
2023/06/01 09:25:28;;;;;;;10.05;2.90;;;14.20;76.50;;;;;;5051662;28;20025;-68
2023/06/01 09:27:55;;;;;;;8.48;2.80;;;14.10;76.60;;;;;;5052474;28;20047;-68
2023/06/01 09:30:24;;;;;;;10.55;3.08;;;14.10;76.60;;;;;;5056221;28;20477;-68
2023/06/01 09:32:52;;;;;;;9.27;2.25;;;14.10;76.20;;;;;;5054017;28;20021;-68
2023/06/01 09:35:38;;;;;;;10.10;2.80;;;14.10;76.60;;;;;;5051879;28;20025;-68
2023/06/01 09:38:05;;;;;;;11.10;2.95;;;14.00;76.40;;;;;;5049724;28;20032;-68
2023/06/01 09:40:32;;;;;;;8.48;2.20;;;14.00;77.60;;;;;;5054331;28;20029;-68
2023/06/01 09:42:58;;;;;;;11.38;3.00;;;13.90;77.70;;;;;;5047645;28;20017;-68
2023/06/01 09:45:24;;;;;;;6.57;2.42;;;13.80;78.80;;;;;;5051584;28;20446;-68
2023/06/01 09:47:51;;;;;;;8.25;2.22;;;14.10;77.80;;;;;;5050073;28;20079;-68
2023/06/01 09:50:37;;;;;;;10.07;2.30;;;14.60;77.40;;;;;;5052073;28;20048;-68
2023/06/01 09:53:04;;;;;;;12.68;2.63;;;14.80;75.20;;;;;;5047954;28;20082;-68
2023/06/01 09:55:29;;;;;;;8.13;2.85;;;15.00;75.50;;;;;;5048448;28;20029;-68
2023/06/01 09:58:19;;;;;;;10.38;3.03;;;14.70;75.90;;;;;;5056895;28;20436;-68
2023/06/01 10:00:47;;;;;;;5.50;2.47;;;14.60;75.30;;;;;;5041093;28;20413;-68
2023/06/01 10:03:14;;;;;;;13.63;3.00;;;14.40;76.10;;;;;;5049439;28;20029;-68
2023/06/01 10:05:40;;;;;;;9.18;2.75;;;14.60;76.50;;;;;;5054619;28;20036;-69
2023/06/01 10:08:06;;;;;;;11.05;2.72;;;14.60;76.20;;;;;;5050116;28;20084;-68
2023/06/01 10:10:32;;;;;;;7.57;2.40;;;14.60;75.80;;;;;;5047709;28;20395;-68
2023/06/01 10:12:58;;;;;;;8.65;2.13;;;14.80;74.60;;;;;;5054514;28;20036;-68
2023/06/01 10:15:23;;;;;;;9.90;2.22;;;14.60;73.00;;;;;;5045310;28;20144;-68
2023/06/01 10:17:49;;;;;;;8.50;2.33;;;14.80;74.90;;;;;;5050132;28;20048;-68
2023/06/01 10:20:16;;;;;;;10.15;3.50;;;14.50;75.20;;;;;;5050026;28;20041;-68
2023/06/01 10:22:42;;;;;;;7.63;2.50;;;14.40;75.50;;;;;;5054344;28;20365;-68
2023/06/01 10:25:11;;;;;;;7.57;2.28;;;14.30;73.90;;;;;;5046416;28;20477;-68
2023/06/01 10:27:54;;;;;;;8.82;2.05;;;14.60;72.80;;;;;;5051348;28;20091;-68
2023/06/01 10:30:19;;;;;;;10.05;2.75;;;15.00;73.00;;;;;;5049266;28;20048;-68
2023/06/01 10:32:48;;;;;;;7.28;2.28;;;15.20;72.30;;;;;;5048370;28;20449;-68
2023/06/01 10:35:26;;;;;;;7.45;2.20;;;15.10;72.00;;;;;;5049589;28;20024;-68
2023/06/01 10:38:07;;;;;;;8.05;2.03;;;14.90;72.60;;;;;;5047133;28;20087;-68
2023/06/01 10:40:43;;;;;;;6.85;2.17;;;14.90;72.80;;;;;;5045910;28;20512;-68
2023/06/01 10:43:37;;;;;;;9.45;2.28;;;14.90;73.80;;;;;;5045058;28;20037;-68
2023/06/01 10:46:03;;;;;;;7.78;2.08;;;14.90;73.60;;;;;;5048182;28;20237;-68
2023/06/01 10:48:51;;;;;;;6.15;2.30;;;15.10;73.40;;;;;;5046752;28;20425;-68
2023/06/01 10:51:19;;;;;;;8.48;2.63;;;15.10;73.60;;;;;;5051689;28;20032;-68
2023/06/01 10:53:45;;;;;;;8.52;3.15;;;15.10;72.60;;;;;;5051706;28;20347;-68
2023/06/01 10:56:23;;;;;;;5.57;2.15;;;15.50;72.80;;;;;;5050909;28;20099;-68
2023/06/01 10:59:07;;;;;;;9.77;2.30;;;15.00;73.10;;;;;;5054305;28;20107;-68
2023/06/01 11:01:40;;;;;;;8.65;2.40;;;15.30;72.00;;;;;;5041198;28;20033;-68
2023/06/01 11:04:06;;;;;;;9.27;2.35;;;15.30;72.70;;;;;;5051099;28;20116;-68
2023/06/01 11:06:42;;;;;;;8.25;2.33;;;15.30;72.10;;;;;;5047548;28;20116;-68
2023/06/01 11:09:12;;;;;;;7.47;2.50;;;15.30;71.50;;;;;;5047292;28;20059;-68
2023/06/01 11:11:52;;;;;;;12.68;2.83;;;15.30;72.00;;;;;;5047995;28;20416;-68
2023/06/01 11:14:36;;;;;;;11.45;2.80;;;15.40;72.70;;;;;;5042774;28;20040;-68
2023/06/01 11:17:28;;;;;;;11.35;2.67;;;15.00;72.30;;;;;;5048403;28;20047;-68
2023/06/01 11:20:05;;;;;;;7.05;2.90;;;15.00;72.40;;;;;;5049030;28;20025;-68
2023/06/01 11:22:37;;;;;;;10.38;2.75;;;15.00;71.50;;;;;;5047771;28;20033;-68
2023/06/01 11:25:06;;;;;;;12.95;3.10;;;15.00;73.40;;;;;;5044458;28;20032;-68
2023/06/01 11:27:31;;;;;;;7.55;3.15;;;14.70;73.20;;;;;;5049063;28;20113;-68
2023/06/01 11:29:57;;;;;;;10.93;2.88;;;14.70;74.00;;;;;;5044780;28;20510;-68
2023/06/01 11:32:25;;;;;;;9.48;2.88;;;14.80;73.70;;;;;;5046335;28;20028;-68
2023/06/01 11:34:51;;;;;;;8.88;3.05;;;15.00;74.30;;;;;;5046611;28;20033;-68
2023/06/01 11:37:18;;;;;;;11.20;2.95;;;14.80;73.60;;;;;;5047273;28;20032;-68
2023/06/01 11:39:47;;;;;;;11.15;2.90;;;14.80;74.10;;;;;;5050040;28;20086;-68
2023/06/01 11:42:15;;;;;;;10.35;2.63;;;14.60;73.30;;;;;;5043048;28;20020;-68
2023/06/01 11:44:42;;;;;;;11.80;2.75;;;14.90;73.30;;;;;;5049963;28;20358;-68
2023/06/01 11:47:10;;;;;;;9.27;2.30;;;14.90;72.90;;;;;;5046272;28;20194;-68
2023/06/01 11:49:47;;;;;;;6.32;2.10;;;15.10;71.70;;;;;;5049486;28;20040;-68
2023/06/01 11:52:13;;;;;;;7.40;2.33;;;15.10;71.40;;;;;;5044880;28;20051;-68
2023/06/01 11:54:42;;;;;;;9.52;2.33;;;15.30;71.20;;;;;;5046469;28;20036;-68
2023/06/01 11:57:08;;;;;;;10.13;2.35;;;15.10;72.00;;;;;;5043475;28;20025;-69
2023/06/01 11:59:41;;;;;;;6.63;2.22;;;14.80;72.00;;;;;;5041365;28;20031;-69
2023/06/01 12:02:20;;;;;;;10.38;3.30;;;14.80;73.10;;;;;;5039627;28;20171;-69
2023/06/01 12:05:10;;;;;;;9.05;2.35;;;15.10;73.20;;;;;;5047285;28;20044;-68
2023/06/01 12:07:50;;;;;;;12.40;2.65;;;15.40;72.30;;;;;;5045144;28;20025;-68
2023/06/01 12:10:18;;;;;;;7.10;2.40;;;15.30;72.00;;;;;;5038658;28;20034;-71
2023/06/01 12:12:44;;;;;;;7.20;2.30;;;15.00;71.80;;;;;;5042916;28;20117;-69
2023/06/01 12:15:18;;;;;;;9.98;2.55;;;15.40;72.30;;;;;;5043616;28;20823;-70
2023/06/01 12:17:52;;;;;;;8.65;2.25;;;15.40;70.30;;;;;;5051477;28;20039;-71
2023/06/01 12:20:31;;;;;;;9.55;2.70;;;15.00;71.10;;;;;;5046194;28;20025;-69
2023/06/01 12:22:58;;;;;;;10.82;2.35;;;15.40;70.60;;;;;;5051177;28;20021;-69
2023/06/01 12:25:24;;;;;;;10.23;2.92;;;15.00;71.20;;;;;;5051129;28;20052;-69
2023/06/01 12:28:05;;;;;;;13.10;2.80;;;15.30;71.50;;;;;;5042870;28;20095;-69
2023/06/01 12:30:31;;;;;;;12.55;2.75;;;15.30;72.00;;;;;;5050865;28;20484;-69
2023/06/01 12:32:57;;;;;;;9.27;2.78;;;15.60;69.50;;;;;;5051658;28;20033;-69
2023/06/01 12:35:23;;;;;;;9.55;3.00;;;15.90;69.40;;;;;;5053116;28;20492;-70
2023/06/01 12:38:12;;;;;;;8.18;2.40;;;16.00;68.30;;;;;;5050989;28;20033;-70
2023/06/01 12:40:38;;;;;;;14.70;3.03;;;16.00;69.20;;;;;;5051581;28;20028;-73
2023/06/01 12:43:07;;;;;;;8.98;2.38;;;15.60;68.90;;;;;;5046622;28;20017;-68